sensor_id;sensor_type;location;lat;lon;timestamp;P1;durP1;ratioP1;P2;durP2;ratioP2
36573;SDS011;22578;42.668;23.232;2023-09-18T00:02:44;4.63;;;2.80;;
36573;SDS011;22578;42.668;23.232;2023-09-18T00:06:05;2.83;;;2.40;;
36573;SDS011;22578;42.668;23.232;2023-09-18T00:09:25;2.80;;;2.30;;
36573;SDS011;22578;42.668;23.232;2023-09-18T00:12:47;3.22;;;2.67;;
36573;SDS011;22578;42.668;23.232;2023-09-18T00:16:07;2.08;;;1.92;;
36573;SDS011;22578;42.668;23.232;2023-09-18T00:19:28;4.70;;;2.85;;
36573;SDS011;22578;42.668;23.232;2023-09-18T00:22:49;2.47;;;2.28;;
36573;SDS011;22578;42.668;23.232;2023-09-18T00:26:09;2.25;;;1.83;;
36573;SDS011;22578;42.668;23.232;2023-09-18T00:29:29;5.93;;;3.00;;
36573;SDS011;22578;42.668;23.232;2023-09-18T00:32:50;3.72;;;1.98;;
36573;SDS011;22578;42.668;23.232;2023-09-18T00:36:11;3.65;;;2.45;;
36573;SDS011;22578;42.668;23.232;2023-09-18T00:39:31;4.28;;;2.80;;
36573;SDS011;22578;42.668;23.232;2023-09-18T00:42:52;4.28;;;2.95;;
36573;SDS011;22578;42.668;23.232;2023-09-18T00:46:12;3.28;;;2.60;;
36573;SDS011;22578;42.668;23.232;2023-09-18T00:49:33;4.28;;;2.70;;
36573;SDS011;22578;42.668;23.232;2023-09-18T00:52:54;4.00;;;2.80;;
36573;SDS011;22578;42.668;23.232;2023-09-18T00:56:15;4.68;;;2.05;;
36573;SDS011;22578;42.668;23.232;2023-09-18T00:59:38;3.00;;;2.15;;
36573;SDS011;22578;42.668;23.232;2023-09-18T01:03:00;3.13;;;2.75;;
36573;SDS011;22578;42.668;23.232;2023-09-18T01:06:24;3.83;;;2.65;;
36573;SDS011;22578;42.668;23.232;2023-09-18T01:09:48;3.28;;;2.42;;
36573;SDS011;22578;42.668;23.232;2023-09-18T01:13:10;3.33;;;2.72;;
36573;SDS011;22578;42.668;23.232;2023-09-18T01:20:15;3.33;;;2.22;;
36573;SDS011;22578;42.668;23.232;2023-09-18T01:23:36;3.10;;;2.55;;
36573;SDS011;22578;42.668;23.232;2023-09-18T01:26:56;4.88;;;3.00;;
36573;SDS011;22578;42.668;23.232;2023-09-18T01:30:17;3.33;;;2.92;;
36573;SDS011;22578;42.668;23.232;2023-09-18T01:33:37;3.78;;;2.78;;
36573;SDS011;22578;42.668;23.232;2023-09-18T01:36:58;2.72;;;2.40;;
36573;SDS011;22578;42.668;23.232;2023-09-18T01:40:19;4.75;;;3.30;;
36573;SDS011;22578;42.668;23.232;2023-09-18T01:43:40;5.18;;;2.88;;
36573;SDS011;22578;42.668;23.232;2023-09-18T01:47:04;4.80;;;3.88;;
36573;SDS011;22578;42.668;23.232;2023-09-18T01:50:28;4.72;;;3.20;;
36573;SDS011;22578;42.668;23.232;2023-09-18T01:53:49;4.32;;;3.40;;
36573;SDS011;22578;42.668;23.232;2023-09-18T01:57:09;3.63;;;3.13;;
36573;SDS011;22578;42.668;23.232;2023-09-18T02:00:30;3.38;;;2.75;;
36573;SDS011;22578;42.668;23.232;2023-09-18T02:03:50;5.13;;;3.67;;
36573;SDS011;22578;42.668;23.232;2023-09-18T02:07:11;6.03;;;4.15;;
36573;SDS011;22578;42.668;23.232;2023-09-18T02:10:31;8.43;;;4.38;;
36573;SDS011;22578;42.668;23.232;2023-09-18T02:13:53;5.07;;;3.78;;
36573;SDS011;22578;42.668;23.232;2023-09-18T02:17:13;5.97;;;4.18;;
36573;SDS011;22578;42.668;23.232;2023-09-18T02:20:39;5.13;;;3.92;;
36573;SDS011;22578;42.668;23.232;2023-09-18T02:24:01;4.88;;;3.22;;
36573;SDS011;22578;42.668;23.232;2023-09-18T02:27:22;4.43;;;3.35;;
36573;SDS011;22578;42.668;23.232;2023-09-18T02:30:42;3.88;;;3.00;;
36573;SDS011;22578;42.668;23.232;2023-09-18T02:34:04;4.53;;;3.58;;
36573;SDS011;22578;42.668;23.232;2023-09-18T02:37:25;4.90;;;3.80;;
36573;SDS011;22578;42.668;23.232;2023-09-18T02:40:45;6.28;;;4.47;;
36573;SDS011;22578;42.668;23.232;2023-09-18T02:44:06;5.22;;;3.22;;
36573;SDS011;22578;42.668;23.232;2023-09-18T02:47:26;4.90;;;3.42;;
36573;SDS011;22578;42.668;23.232;2023-09-18T02:50:47;6.18;;;4.65;;
36573;SDS011;22578;42.668;23.232;2023-09-18T02:54:07;6.85;;;4.20;;
36573;SDS011;22578;42.668;23.232;2023-09-18T02:57:28;5.13;;;3.55;;
36573;SDS011;22578;42.668;23.232;2023-09-18T03:00:49;5.32;;;3.95;;
36573;SDS011;22578;42.668;23.232;2023-09-18T03:04:10;5.28;;;3.65;;
36573;SDS011;22578;42.668;23.232;2023-09-18T03:07:30;5.70;;;3.33;;
36573;SDS011;22578;42.668;23.232;2023-09-18T03:10:51;4.20;;;2.95;;
36573;SDS011;22578;42.668;23.232;2023-09-18T03:14:11;4.50;;;3.53;;
36573;SDS011;22578;42.668;23.232;2023-09-18T03:17:32;7.90;;;4.10;;
36573;SDS011;22578;42.668;23.232;2023-09-18T03:20:52;7.45;;;4.32;;
36573;SDS011;22578;42.668;23.232;2023-09-18T03:24:13;5.68;;;4.20;;
36573;SDS011;22578;42.668;23.232;2023-09-18T03:27:33;12.80;;;3.90;;
36573;SDS011;22578;42.668;23.232;2023-09-18T03:30:53;3.78;;;3.20;;
36573;SDS011;22578;42.668;23.232;2023-09-18T03:34:14;4.47;;;2.92;;
36573;SDS011;22578;42.668;23.232;2023-09-18T03:37:35;4.38;;;3.35;;
36573;SDS011;22578;42.668;23.232;2023-09-18T03:40:55;5.35;;;3.90;;
36573;SDS011;22578;42.668;23.232;2023-09-18T03:44:16;3.22;;;2.92;;
36573;SDS011;22578;42.668;23.232;2023-09-18T03:47:37;5.93;;;3.40;;
36573;SDS011;22578;42.668;23.232;2023-09-18T03:51:02;6.22;;;3.50;;
36573;SDS011;22578;42.668;23.232;2023-09-18T03:54:25;4.70;;;4.03;;
36573;SDS011;22578;42.668;23.232;2023-09-18T03:57:46;4.07;;;3.03;;
36573;SDS011;22578;42.668;23.232;2023-09-18T04:01:08;4.00;;;3.13;;
36573;SDS011;22578;42.668;23.232;2023-09-18T04:04:29;4.53;;;3.25;;
36573;SDS011;22578;42.668;23.232;2023-09-18T04:07:53;5.95;;;4.50;;
36573;SDS011;22578;42.668;23.232;2023-09-18T04:11:13;6.10;;;3.35;;
36573;SDS011;22578;42.668;23.232;2023-09-18T04:14:34;5.18;;;3.60;;
36573;SDS011;22578;42.668;23.232;2023-09-18T04:17:56;6.57;;;3.60;;
36573;SDS011;22578;42.668;23.232;2023-09-18T04:21:16;4.25;;;3.30;;
36573;SDS011;22578;42.668;23.232;2023-09-18T04:24:37;3.63;;;3.25;;
36573;SDS011;22578;42.668;23.232;2023-09-18T04:27:57;4.75;;;3.95;;
36573;SDS011;22578;42.668;23.232;2023-09-18T04:31:18;4.03;;;3.22;;
36573;SDS011;22578;42.668;23.232;2023-09-18T04:34:38;4.85;;;3.20;;
36573;SDS011;22578;42.668;23.232;2023-09-18T04:37:59;5.20;;;2.88;;
36573;SDS011;22578;42.668;23.232;2023-09-18T04:41:20;4.38;;;3.58;;
36573;SDS011;22578;42.668;23.232;2023-09-18T04:44:41;4.55;;;3.47;;
36573;SDS011;22578;42.668;23.232;2023-09-18T04:48:02;4.97;;;4.03;;
36573;SDS011;22578;42.668;23.232;2023-09-18T04:51:23;6.50;;;3.75;;
36573;SDS011;22578;42.668;23.232;2023-09-18T04:54:43;4.53;;;2.67;;
36573;SDS011;22578;42.668;23.232;2023-09-18T04:58:04;4.68;;;3.45;;
36573;SDS011;22578;42.668;23.232;2023-09-18T05:01:25;3.90;;;3.22;;
36573;SDS011;22578;42.668;23.232;2023-09-18T05:04:45;4.97;;;3.92;;
36573;SDS011;22578;42.668;23.232;2023-09-18T05:08:06;4.00;;;3.50;;
36573;SDS011;22578;42.668;23.232;2023-09-18T05:11:27;4.68;;;3.95;;
36573;SDS011;22578;42.668;23.232;2023-09-18T05:14:50;3.65;;;2.92;;
36573;SDS011;22578;42.668;23.232;2023-09-18T05:18:11;4.80;;;3.67;;
36573;SDS011;22578;42.668;23.232;2023-09-18T05:21:33;4.88;;;3.85;;
36573;SDS011;22578;42.668;23.232;2023-09-18T05:24:54;4.82;;;4.07;;
36573;SDS011;22578;42.668;23.232;2023-09-18T05:28:14;5.53;;;4.18;;
36573;SDS011;22578;42.668;23.232;2023-09-18T05:31:35;6.22;;;4.28;;
36573;SDS011;22578;42.668;23.232;2023-09-18T05:34:56;4.45;;;2.95;;
36573;SDS011;22578;42.668;23.232;2023-09-18T05:38:22;6.57;;;4.10;;
36573;SDS011;22578;42.668;23.232;2023-09-18T05:41:42;12.23;;;4.43;;
36573;SDS011;22578;42.668;23.232;2023-09-18T05:45:05;5.03;;;3.80;;
36573;SDS011;22578;42.668;23.232;2023-09-18T05:48:26;3.22;;;2.60;;
36573;SDS011;22578;42.668;23.232;2023-09-18T05:51:46;5.38;;;3.92;;
36573;SDS011;22578;42.668;23.232;2023-09-18T05:55:09;5.75;;;3.95;;
36573;SDS011;22578;42.668;23.232;2023-09-18T05:58:33;5.20;;;3.72;;
36573;SDS011;22578;42.668;23.232;2023-09-18T06:01:55;3.55;;;2.75;;
36573;SDS011;22578;42.668;23.232;2023-09-18T06:05:16;6.88;;;4.28;;
36573;SDS011;22578;42.668;23.232;2023-09-18T06:08:37;4.93;;;3.67;;
36573;SDS011;22578;42.668;23.232;2023-09-18T06:12:00;6.22;;;3.58;;
36573;SDS011;22578;42.668;23.232;2023-09-18T06:15:20;5.97;;;3.80;;
36573;SDS011;22578;42.668;23.232;2023-09-18T06:18:41;7.30;;;4.10;;
36573;SDS011;22578;42.668;23.232;2023-09-18T06:22:02;3.42;;;2.70;;
36573;SDS011;22578;42.668;23.232;2023-09-18T06:25:22;6.45;;;4.35;;
36573;SDS011;22578;42.668;23.232;2023-09-18T06:28:43;5.03;;;3.90;;
36573;SDS011;22578;42.668;23.232;2023-09-18T06:32:04;4.03;;;3.30;;
36573;SDS011;22578;42.668;23.232;2023-09-18T06:35:25;7.95;;;4.28;;
36573;SDS011;22578;42.668;23.232;2023-09-18T06:38:46;4.78;;;3.47;;
36573;SDS011;22578;42.668;23.232;2023-09-18T06:42:06;7.20;;;4.75;;
36573;SDS011;22578;42.668;23.232;2023-09-18T06:45:29;17.65;;;4.43;;
36573;SDS011;22578;42.668;23.232;2023-09-18T06:48:50;5.82;;;4.28;;
36573;SDS011;22578;42.668;23.232;2023-09-18T06:52:11;4.30;;;3.20;;
36573;SDS011;22578;42.668;23.232;2023-09-18T06:55:33;5.30;;;3.63;;
36573;SDS011;22578;42.668;23.232;2023-09-18T06:58:54;9.43;;;5.43;;
36573;SDS011;22578;42.668;23.232;2023-09-18T07:02:15;6.22;;;4.10;;
36573;SDS011;22578;42.668;23.232;2023-09-18T07:05:37;6.13;;;3.55;;
36573;SDS011;22578;42.668;23.232;2023-09-18T07:08:57;4.03;;;3.55;;
36573;SDS011;22578;42.668;23.232;2023-09-18T07:12:18;5.07;;;3.35;;
36573;SDS011;22578;42.668;23.232;2023-09-18T07:15:39;3.70;;;3.20;;
36573;SDS011;22578;42.668;23.232;2023-09-18T07:19:00;8.05;;;3.92;;
36573;SDS011;22578;42.668;23.232;2023-09-18T07:22:21;7.35;;;3.47;;
36573;SDS011;22578;42.668;23.232;2023-09-18T07:25:42;6.25;;;4.25;;
36573;SDS011;22578;42.668;23.232;2023-09-18T07:29:04;4.88;;;3.25;;
36573;SDS011;22578;42.668;23.232;2023-09-18T07:32:25;5.60;;;3.70;;
36573;SDS011;22578;42.668;23.232;2023-09-18T07:35:48;5.32;;;3.70;;
36573;SDS011;22578;42.668;23.232;2023-09-18T07:39:11;5.38;;;4.10;;
36573;SDS011;22578;42.668;23.232;2023-09-18T07:42:32;3.83;;;3.00;;
36573;SDS011;22578;42.668;23.232;2023-09-18T07:45:53;5.78;;;3.17;;
36573;SDS011;22578;42.668;23.232;2023-09-18T07:49:15;6.07;;;4.22;;
36573;SDS011;22578;42.668;23.232;2023-09-18T07:52:35;4.40;;;3.50;;
36573;SDS011;22578;42.668;23.232;2023-09-18T07:55:56;4.15;;;2.92;;
36573;SDS011;22578;42.668;23.232;2023-09-18T07:59:18;6.15;;;2.95;;
36573;SDS011;22578;42.668;23.232;2023-09-18T08:02:40;3.00;;;2.20;;
36573;SDS011;22578;42.668;23.232;2023-09-18T08:06:00;4.85;;;2.95;;
36573;SDS011;22578;42.668;23.232;2023-09-18T08:09:21;3.17;;;2.70;;
36573;SDS011;22578;42.668;23.232;2023-09-18T08:12:42;6.32;;;3.67;;
36573;SDS011;22578;42.668;23.232;2023-09-18T08:16:03;2.65;;;2.17;;
36573;SDS011;22578;42.668;23.232;2023-09-18T08:19:26;4.20;;;2.95;;
36573;SDS011;22578;42.668;23.232;2023-09-18T08:22:46;4.55;;;2.22;;
36573;SDS011;22578;42.668;23.232;2023-09-18T08:26:08;6.05;;;2.80;;
36573;SDS011;22578;42.668;23.232;2023-09-18T08:29:28;5.05;;;2.97;;
36573;SDS011;22578;42.668;23.232;2023-09-18T08:32:49;3.67;;;2.92;;
36573;SDS011;22578;42.668;23.232;2023-09-18T08:36:09;8.10;;;3.15;;
36573;SDS011;22578;42.668;23.232;2023-09-18T08:39:30;5.03;;;3.38;;
36573;SDS011;22578;42.668;23.232;2023-09-18T08:42:52;5.00;;;2.85;;
36573;SDS011;22578;42.668;23.232;2023-09-18T08:46:15;3.50;;;2.78;;
36573;SDS011;22578;42.668;23.232;2023-09-18T08:49:36;3.97;;;2.97;;
36573;SDS011;22578;42.668;23.232;2023-09-18T08:52:57;2.95;;;2.65;;
36573;SDS011;22578;42.668;23.232;2023-09-18T08:56:18;6.38;;;3.55;;
36573;SDS011;22578;42.668;23.232;2023-09-18T08:59:39;2.83;;;2.53;;
36573;SDS011;22578;42.668;23.232;2023-09-18T09:03:01;4.60;;;2.60;;
36573;SDS011;22578;42.668;23.232;2023-09-18T09:06:23;5.43;;;3.60;;
36573;SDS011;22578;42.668;23.232;2023-09-18T09:09:43;4.07;;;3.30;;
36573;SDS011;22578;42.668;23.232;2023-09-18T09:13:04;4.47;;;2.95;;
36573;SDS011;22578;42.668;23.232;2023-09-18T09:16:25;4.00;;;2.78;;
36573;SDS011;22578;42.668;23.232;2023-09-18T09:19:45;3.17;;;1.83;;
36573;SDS011;22578;42.668;23.232;2023-09-18T09:23:08;4.03;;;2.95;;
36573;SDS011;22578;42.668;23.232;2023-09-18T09:26:29;4.45;;;2.35;;
36573;SDS011;22578;42.668;23.232;2023-09-18T09:29:59;4.05;;;2.60;;
36573;SDS011;22578;42.668;23.232;2023-09-18T09:33:20;3.42;;;2.13;;
36573;SDS011;22578;42.668;23.232;2023-09-18T09:36:53;3.67;;;2.38;;
36573;SDS011;22578;42.668;23.232;2023-09-18T09:40:15;2.38;;;1.90;;
36573;SDS011;22578;42.668;23.232;2023-09-18T09:43:35;3.97;;;2.60;;
36573;SDS011;22578;42.668;23.232;2023-09-18T09:46:56;3.58;;;2.72;;
36573;SDS011;22578;42.668;23.232;2023-09-18T09:50:19;2.78;;;2.08;;
36573;SDS011;22578;42.668;23.232;2023-09-18T09:53:46;2.83;;;2.15;;
36573;SDS011;22578;42.668;23.232;2023-09-18T09:57:08;4.22;;;2.50;;
36573;SDS011;22578;42.668;23.232;2023-09-18T10:04:13;1.77;;;1.45;;
36573;SDS011;22578;42.668;23.232;2023-09-18T10:07:37;2.90;;;2.05;;
36573;SDS011;22578;42.668;23.232;2023-09-18T10:11:00;2.67;;;2.05;;
36573;SDS011;22578;42.668;23.232;2023-09-18T10:14:32;3.03;;;1.95;;
36573;SDS011;22578;42.668;23.232;2023-09-18T10:17:54;2.22;;;1.70;;
36573;SDS011;22578;42.668;23.232;2023-09-18T10:24:37;3.95;;;2.25;;
36573;SDS011;22578;42.668;23.232;2023-09-18T10:28:01;3.53;;;2.20;;
36573;SDS011;22578;42.668;23.232;2023-09-18T10:31:23;3.70;;;2.05;;
36573;SDS011;22578;42.668;23.232;2023-09-18T10:34:43;3.03;;;1.77;;
36573;SDS011;22578;42.668;23.232;2023-09-18T10:38:05;3.45;;;1.92;;
36573;SDS011;22578;42.668;23.232;2023-09-18T10:41:25;2.97;;;1.95;;
36573;SDS011;22578;42.668;23.232;2023-09-18T10:44:46;3.67;;;1.73;;
36573;SDS011;22578;42.668;23.232;2023-09-18T10:48:07;3.20;;;2.13;;
36573;SDS011;22578;42.668;23.232;2023-09-18T10:51:28;9.75;;;3.35;;
36573;SDS011;22578;42.668;23.232;2023-09-18T10:54:49;2.28;;;1.70;;
36573;SDS011;22578;42.668;23.232;2023-09-18T10:58:11;2.70;;;1.90;;
36573;SDS011;22578;42.668;23.232;2023-09-18T11:01:32;4.28;;;2.50;;
36573;SDS011;22578;42.668;23.232;2023-09-18T11:04:52;1.90;;;1.70;;
36573;SDS011;22578;42.668;23.232;2023-09-18T11:11:51;2.47;;;1.75;;
36573;SDS011;22578;42.668;23.232;2023-09-18T11:15:30;4.05;;;1.90;;
36573;SDS011;22578;42.668;23.232;2023-09-18T11:22:19;2.70;;;2.20;;
36573;SDS011;22578;42.668;23.232;2023-09-18T11:25:40;2.78;;;1.90;;
36573;SDS011;22578;42.668;23.232;2023-09-18T11:29:17;2.80;;;2.08;;
36573;SDS011;22578;42.668;23.232;2023-09-18T11:32:42;3.25;;;1.85;;
36573;SDS011;22578;42.668;23.232;2023-09-18T11:36:11;2.10;;;1.77;;
36573;SDS011;22578;42.668;23.232;2023-09-18T11:39:38;3.63;;;2.10;;
36573;SDS011;22578;42.668;23.232;2023-09-18T11:46:46;3.30;;;1.70;;
36573;SDS011;22578;42.668;23.232;2023-09-18T11:50:10;1.48;;;1.33;;
36573;SDS011;22578;42.668;23.232;2023-09-18T11:53:35;3.03;;;1.63;;
36573;SDS011;22578;42.668;23.232;2023-09-18T11:56:57;2.03;;;1.67;;
36573;SDS011;22578;42.668;23.232;2023-09-18T12:00:18;1.70;;;1.60;;
36573;SDS011;22578;42.668;23.232;2023-09-18T12:03:42;2.72;;;1.70;;
36573;SDS011;22578;42.668;23.232;2023-09-18T12:07:03;2.03;;;1.75;;
36573;SDS011;22578;42.668;23.232;2023-09-18T12:10:24;2.00;;;1.50;;
36573;SDS011;22578;42.668;23.232;2023-09-18T12:13:54;1.92;;;1.30;;
36573;SDS011;22578;42.668;23.232;2023-09-18T12:17:15;1.80;;;1.55;;
36573;SDS011;22578;42.668;23.232;2023-09-18T12:20:36;2.47;;;1.40;;
36573;SDS011;22578;42.668;23.232;2023-09-18T12:23:57;1.95;;;1.42;;
36573;SDS011;22578;42.668;23.232;2023-09-18T12:27:19;2.35;;;1.70;;
36573;SDS011;22578;42.668;23.232;2023-09-18T12:30:40;1.70;;;1.40;;
36573;SDS011;22578;42.668;23.232;2023-09-18T12:34:00;3.03;;;1.42;;
36573;SDS011;22578;42.668;23.232;2023-09-18T12:37:22;2.08;;;1.77;;
36573;SDS011;22578;42.668;23.232;2023-09-18T12:40:43;1.52;;;1.42;;
36573;SDS011;22578;42.668;23.232;2023-09-18T12:44:05;1.65;;;1.40;;
36573;SDS011;22578;42.668;23.232;2023-09-18T12:47:27;1.65;;;1.48;;
36573;SDS011;22578;42.668;23.232;2023-09-18T12:50:54;1.70;;;1.60;;
36573;SDS011;22578;42.668;23.232;2023-09-18T12:54:14;1.45;;;1.30;;
36573;SDS011;22578;42.668;23.232;2023-09-18T12:57:36;2.03;;;1.63;;
36573;SDS011;22578;42.668;23.232;2023-09-18T13:00:56;2.25;;;1.52;;
36573;SDS011;22578;42.668;23.232;2023-09-18T13:04:17;3.25;;;2.22;;
36573;SDS011;22578;42.668;23.232;2023-09-18T13:07:44;3.45;;;1.85;;
36573;SDS011;22578;42.668;23.232;2023-09-18T13:11:07;3.70;;;1.52;;
36573;SDS011;22578;42.668;23.232;2023-09-18T13:14:28;2.45;;;1.80;;
36573;SDS011;22578;42.668;23.232;2023-09-18T13:17:49;2.50;;;1.73;;
36573;SDS011;22578;42.668;23.232;2023-09-18T13:21:11;2.03;;;1.55;;
36573;SDS011;22578;42.668;23.232;2023-09-18T13:24:33;1.88;;;1.73;;
36573;SDS011;22578;42.668;23.232;2023-09-18T13:27:54;1.90;;;1.55;;
36573;SDS011;22578;42.668;23.232;2023-09-18T13:31:16;1.63;;;1.20;;
36573;SDS011;22578;42.668;23.232;2023-09-18T13:34:38;2.00;;;1.55;;
36573;SDS011;22578;42.668;23.232;2023-09-18T13:37:59;1.85;;;1.40;;
36573;SDS011;22578;42.668;23.232;2023-09-18T13:41:20;1.25;;;1.15;;
36573;SDS011;22578;42.668;23.232;2023-09-18T13:44:41;2.22;;;1.60;;
36573;SDS011;22578;42.668;23.232;2023-09-18T13:48:05;1.70;;;1.27;;
36573;SDS011;22578;42.668;23.232;2023-09-18T13:51:26;1.38;;;1.20;;
36573;SDS011;22578;42.668;23.232;2023-09-18T13:54:47;2.63;;;2.25;;
36573;SDS011;22578;42.668;23.232;2023-09-18T13:58:11;2.03;;;1.40;;
36573;SDS011;22578;42.668;23.232;2023-09-18T14:01:31;2.22;;;1.50;;
36573;SDS011;22578;42.668;23.232;2023-09-18T14:04:52;2.05;;;1.10;;
36573;SDS011;22578;42.668;23.232;2023-09-18T14:08:13;5.55;;;1.80;;
36573;SDS011;22578;42.668;23.232;2023-09-18T14:11:34;1.90;;;1.70;;
36573;SDS011;22578;42.668;23.232;2023-09-18T14:14:58;1.65;;;1.48;;
36573;SDS011;22578;42.668;23.232;2023-09-18T14:18:19;2.10;;;1.65;;
36573;SDS011;22578;42.668;23.232;2023-09-18T14:21:40;2.35;;;1.90;;
36573;SDS011;22578;42.668;23.232;2023-09-18T14:25:00;3.58;;;1.63;;
36573;SDS011;22578;42.668;23.232;2023-09-18T14:28:24;2.15;;;1.80;;
36573;SDS011;22578;42.668;23.232;2023-09-18T14:31:45;1.83;;;1.65;;
36573;SDS011;22578;42.668;23.232;2023-09-18T14:35:06;1.98;;;1.75;;
36573;SDS011;22578;42.668;23.232;2023-09-18T14:38:30;2.05;;;1.60;;
36573;SDS011;22578;42.668;23.232;2023-09-18T14:41:51;1.90;;;1.45;;
36573;SDS011;22578;42.668;23.232;2023-09-18T14:45:12;1.80;;;1.35;;
36573;SDS011;22578;42.668;23.232;2023-09-18T14:48:33;2.45;;;1.80;;
36573;SDS011;22578;42.668;23.232;2023-09-18T14:51:54;5.47;;;1.60;;
36573;SDS011;22578;42.668;23.232;2023-09-18T14:55:15;2.50;;;1.80;;
36573;SDS011;22578;42.668;23.232;2023-09-18T14:58:36;1.65;;;1.40;;
36573;SDS011;22578;42.668;23.232;2023-09-18T15:01:56;2.08;;;1.80;;
36573;SDS011;22578;42.668;23.232;2023-09-18T15:05:17;2.63;;;1.52;;
36573;SDS011;22578;42.668;23.232;2023-09-18T15:08:38;2.38;;;1.90;;
36573;SDS011;22578;42.668;23.232;2023-09-18T15:11:58;1.70;;;1.60;;
36573;SDS011;22578;42.668;23.232;2023-09-18T15:15:19;3.72;;;1.90;;
36573;SDS011;22578;42.668;23.232;2023-09-18T15:18:43;2.50;;;2.03;;
36573;SDS011;22578;42.668;23.232;2023-09-18T15:22:04;1.80;;;1.50;;
36573;SDS011;22578;42.668;23.232;2023-09-18T15:25:25;1.65;;;1.50;;
36573;SDS011;22578;42.668;23.232;2023-09-18T15:28:46;1.60;;;1.45;;
36573;SDS011;22578;42.668;23.232;2023-09-18T15:32:06;1.67;;;1.50;;
36573;SDS011;22578;42.668;23.232;2023-09-18T15:35:28;4.30;;;1.90;;
36573;SDS011;22578;42.668;23.232;2023-09-18T15:38:49;1.92;;;1.38;;
36573;SDS011;22578;42.668;23.232;2023-09-18T15:42:11;1.90;;;1.67;;
36573;SDS011;22578;42.668;23.232;2023-09-18T15:45:31;2.60;;;1.92;;
36573;SDS011;22578;42.668;23.232;2023-09-18T15:48:55;4.93;;;2.92;;
36573;SDS011;22578;42.668;23.232;2023-09-18T15:52:16;17.15;;;2.10;;
36573;SDS011;22578;42.668;23.232;2023-09-18T15:55:37;1.42;;;1.33;;
36573;SDS011;22578;42.668;23.232;2023-09-18T15:58:57;2.92;;;1.80;;
36573;SDS011;22578;42.668;23.232;2023-09-18T16:02:18;2.70;;;1.50;;
36573;SDS011;22578;42.668;23.232;2023-09-18T16:05:39;1.85;;;1.50;;
36573;SDS011;22578;42.668;23.232;2023-09-18T16:09:01;1.80;;;1.48;;
36573;SDS011;22578;42.668;23.232;2023-09-18T16:12:21;1.63;;;1.50;;
36573;SDS011;22578;42.668;23.232;2023-09-18T16:15:42;1.60;;;1.50;;
36573;SDS011;22578;42.668;23.232;2023-09-18T16:19:05;1.95;;;1.40;;
36573;SDS011;22578;42.668;23.232;2023-09-18T16:22:26;2.55;;;2.00;;
36573;SDS011;22578;42.668;23.232;2023-09-18T16:25:47;2.47;;;1.80;;
36573;SDS011;22578;42.668;23.232;2023-09-18T16:29:07;2.65;;;1.83;;
36573;SDS011;22578;42.668;23.232;2023-09-18T16:32:28;2.55;;;2.08;;
36573;SDS011;22578;42.668;23.232;2023-09-18T16:35:49;4.25;;;2.03;;
36573;SDS011;22578;42.668;23.232;2023-09-18T16:39:09;2.60;;;1.80;;
36573;SDS011;22578;42.668;23.232;2023-09-18T16:42:30;2.28;;;2.08;;
36573;SDS011;22578;42.668;23.232;2023-09-18T16:45:50;2.47;;;1.90;;
36573;SDS011;22578;42.668;23.232;2023-09-18T16:49:11;2.42;;;1.70;;
36573;SDS011;22578;42.668;23.232;2023-09-18T16:52:34;1.83;;;1.73;;
36573;SDS011;22578;42.668;23.232;2023-09-18T16:55:56;1.83;;;1.63;;
36573;SDS011;22578;42.668;23.232;2023-09-18T16:59:16;4.75;;;2.65;;
36573;SDS011;22578;42.668;23.232;2023-09-18T17:02:37;2.10;;;1.80;;
36573;SDS011;22578;42.668;23.232;2023-09-18T17:05:57;1.98;;;1.50;;
36573;SDS011;22578;42.668;23.232;2023-09-18T17:09:18;1.95;;;1.80;;
36573;SDS011;22578;42.668;23.232;2023-09-18T17:12:39;1.55;;;1.40;;
36573;SDS011;22578;42.668;23.232;2023-09-18T17:16:00;4.35;;;2.65;;
36573;SDS011;22578;42.668;23.232;2023-09-18T17:19:20;1.77;;;1.67;;
36573;SDS011;22578;42.668;23.232;2023-09-18T17:22:41;2.22;;;1.60;;
36573;SDS011;22578;42.668;23.232;2023-09-18T17:26:01;1.67;;;1.45;;
36573;SDS011;22578;42.668;23.232;2023-09-18T17:29:23;2.10;;;1.92;;
36573;SDS011;22578;42.668;23.232;2023-09-18T17:32:44;2.50;;;2.17;;
36573;SDS011;22578;42.668;23.232;2023-09-18T17:36:07;2.05;;;1.80;;
36573;SDS011;22578;42.668;23.232;2023-09-18T17:39:28;2.08;;;1.73;;
36573;SDS011;22578;42.668;23.232;2023-09-18T17:42:48;1.50;;;1.40;;
36573;SDS011;22578;42.668;23.232;2023-09-18T17:46:09;5.03;;;2.22;;
36573;SDS011;22578;42.668;23.232;2023-09-18T17:49:30;3.78;;;2.20;;
36573;SDS011;22578;42.668;23.232;2023-09-18T17:52:50;2.05;;;1.60;;
36573;SDS011;22578;42.668;23.232;2023-09-18T17:56:12;1.88;;;1.73;;
36573;SDS011;22578;42.668;23.232;2023-09-18T17:59:35;2.42;;;1.80;;
36573;SDS011;22578;42.668;23.232;2023-09-18T18:02:56;3.10;;;2.55;;
36573;SDS011;22578;42.668;23.232;2023-09-18T18:06:17;2.97;;;2.08;;
36573;SDS011;22578;42.668;23.232;2023-09-18T18:09:37;4.13;;;2.72;;
36573;SDS011;22578;42.668;23.232;2023-09-18T18:12:58;2.10;;;1.90;;
36573;SDS011;22578;42.668;23.232;2023-09-18T18:16:19;2.03;;;1.83;;
36573;SDS011;22578;42.668;23.232;2023-09-18T18:19:41;2.20;;;2.00;;
36573;SDS011;22578;42.668;23.232;2023-09-18T18:23:03;2.30;;;2.05;;
36573;SDS011;22578;42.668;23.232;2023-09-18T18:26:24;1.70;;;1.60;;
36573;SDS011;22578;42.668;23.232;2023-09-18T18:29:47;1.65;;;1.55;;
36573;SDS011;22578;42.668;23.232;2023-09-18T18:33:08;3.05;;;2.05;;
36573;SDS011;22578;42.668;23.232;2023-09-18T18:36:29;2.10;;;1.90;;
36573;SDS011;22578;42.668;23.232;2023-09-18T18:39:51;3.63;;;2.67;;
36573;SDS011;22578;42.668;23.232;2023-09-18T18:43:12;2.00;;;1.60;;
36573;SDS011;22578;42.668;23.232;2023-09-18T18:46:35;3.80;;;2.10;;
36573;SDS011;22578;42.668;23.232;2023-09-18T18:49:56;4.97;;;2.00;;
36573;SDS011;22578;42.668;23.232;2023-09-18T18:53:16;4.75;;;2.40;;
36573;SDS011;22578;42.668;23.232;2023-09-18T18:56:37;2.85;;;2.10;;
36573;SDS011;22578;42.668;23.232;2023-09-18T18:59:57;2.42;;;2.05;;
36573;SDS011;22578;42.668;23.232;2023-09-18T19:03:18;3.75;;;2.17;;
36573;SDS011;22578;42.668;23.232;2023-09-18T19:06:40;4.18;;;1.98;;
36573;SDS011;22578;42.668;23.232;2023-09-18T19:10:00;2.58;;;1.98;;
36573;SDS011;22578;42.668;23.232;2023-09-18T19:13:21;2.15;;;1.85;;
36573;SDS011;22578;42.668;23.232;2023-09-18T19:16:42;5.45;;;2.88;;
36573;SDS011;22578;42.668;23.232;2023-09-18T19:20:02;3.33;;;2.40;;
36573;SDS011;22578;42.668;23.232;2023-09-18T19:23:25;1.85;;;1.73;;
36573;SDS011;22578;42.668;23.232;2023-09-18T19:26:46;2.83;;;1.90;;
36573;SDS011;22578;42.668;23.232;2023-09-18T19:30:07;3.72;;;2.40;;
36573;SDS011;22578;42.668;23.232;2023-09-18T19:33:28;2.40;;;2.03;;
36573;SDS011;22578;42.668;23.232;2023-09-18T19:36:49;2.42;;;1.98;;
36573;SDS011;22578;42.668;23.232;2023-09-18T19:40:13;2.25;;;2.00;;
36573;SDS011;22578;42.668;23.232;2023-09-18T19:43:34;1.80;;;1.70;;
36573;SDS011;22578;42.668;23.232;2023-09-18T19:46:55;3.33;;;2.40;;
36573;SDS011;22578;42.668;23.232;2023-09-18T19:50:18;1.85;;;1.42;;
36573;SDS011;22578;42.668;23.232;2023-09-18T19:53:39;1.80;;;1.67;;
36573;SDS011;22578;42.668;23.232;2023-09-18T19:57:00;3.80;;;2.47;;
36573;SDS011;22578;42.668;23.232;2023-09-18T20:00:21;1.80;;;1.70;;
36573;SDS011;22578;42.668;23.232;2023-09-18T20:03:42;3.05;;;2.03;;
36573;SDS011;22578;42.668;23.232;2023-09-18T20:07:02;1.98;;;1.77;;
36573;SDS011;22578;42.668;23.232;2023-09-18T20:10:26;1.95;;;1.50;;
36573;SDS011;22578;42.668;23.232;2023-09-18T20:13:49;1.98;;;1.60;;
36573;SDS011;22578;42.668;23.232;2023-09-18T20:17:10;2.00;;;1.80;;